sensor_id;sensor_type;location;lat;lon;timestamp;P1;durP1;ratioP1;P2;durP2;ratioP2
75894;SDS011;64573;50.328;15.014;2023-04-03T00:00:39;6.93;;;3.35;;
75894;SDS011;64573;50.328;15.014;2023-04-03T00:03:04;6.60;;;3.53;;
75894;SDS011;64573;50.328;15.014;2023-04-03T00:05:30;8.45;;;2.97;;
75894;SDS011;64573;50.328;15.014;2023-04-03T00:07:55;9.05;;;3.80;;
75894;SDS011;64573;50.328;15.014;2023-04-03T00:10:21;7.13;;;3.28;;
75894;SDS011;64573;50.328;15.014;2023-04-03T00:12:46;6.38;;;3.22;;
75894;SDS011;64573;50.328;15.014;2023-04-03T00:15:11;6.57;;;3.65;;
75894;SDS011;64573;50.328;15.014;2023-04-03T00:17:37;5.32;;;2.53;;
75894;SDS011;64573;50.328;15.014;2023-04-03T00:20:03;4.53;;;2.70;;
75894;SDS011;64573;50.328;15.014;2023-04-03T00:22:29;4.90;;;2.47;;
75894;SDS011;64573;50.328;15.014;2023-04-03T00:24:55;5.97;;;3.03;;
75894;SDS011;64573;50.328;15.014;2023-04-03T00:27:20;6.53;;;2.67;;
75894;SDS011;64573;50.328;15.014;2023-04-03T00:29:46;7.32;;;2.53;;
75894;SDS011;64573;50.328;15.014;2023-04-03T00:32:11;4.10;;;2.38;;
75894;SDS011;64573;50.328;15.014;2023-04-03T00:34:37;7.18;;;2.40;;
75894;SDS011;64573;50.328;15.014;2023-04-03T00:37:02;5.90;;;2.25;;
75894;SDS011;64573;50.328;15.014;2023-04-03T00:39:28;5.35;;;2.35;;
75894;SDS011;64573;50.328;15.014;2023-04-03T00:41:53;6.05;;;2.40;;
75894;SDS011;64573;50.328;15.014;2023-04-03T00:44:22;7.05;;;2.15;;
75894;SDS011;64573;50.328;15.014;2023-04-03T00:47:08;3.97;;;1.90;;
75894;SDS011;64573;50.328;15.014;2023-04-03T00:49:35;7.85;;;2.30;;
75894;SDS011;64573;50.328;15.014;2023-04-03T00:52:02;9.50;;;2.40;;
75894;SDS011;64573;50.328;15.014;2023-04-03T00:54:28;5.60;;;2.42;;
75894;SDS011;64573;50.328;15.014;2023-04-03T00:56:54;3.00;;;1.60;;
75894;SDS011;64573;50.328;15.014;2023-04-03T00:59:24;3.88;;;1.80;;
75894;SDS011;64573;50.328;15.014;2023-04-03T01:01:55;5.00;;;2.33;;
75894;SDS011;64573;50.328;15.014;2023-04-03T01:04:28;6.60;;;1.80;;
75894;SDS011;64573;50.328;15.014;2023-04-03T01:07:01;6.60;;;2.30;;
75894;SDS011;64573;50.328;15.014;2023-04-03T01:09:33;5.75;;;2.30;;
75894;SDS011;64573;50.328;15.014;2023-04-03T01:12:20;5.90;;;2.15;;
75894;SDS011;64573;50.328;15.014;2023-04-03T01:14:48;8.68;;;2.90;;
75894;SDS011;64573;50.328;15.014;2023-04-03T01:17:32;6.20;;;2.50;;
75894;SDS011;64573;50.328;15.014;2023-04-03T01:22:54;3.28;;;2.10;;
75894;SDS011;64573;50.328;15.014;2023-04-03T01:25:33;5.68;;;2.05;;
75894;SDS011;64573;50.328;15.014;2023-04-03T01:28:00;6.93;;;2.20;;
75894;SDS011;64573;50.328;15.014;2023-04-03T01:30:28;7.07;;;2.72;;
75894;SDS011;64573;50.328;15.014;2023-04-03T01:32:58;8.35;;;2.58;;
75894;SDS011;64573;50.328;15.014;2023-04-03T01:35:23;4.82;;;2.63;;
75894;SDS011;64573;50.328;15.014;2023-04-03T01:37:48;6.05;;;2.80;;
75894;SDS011;64573;50.328;15.014;2023-04-03T01:40:14;4.32;;;2.28;;
75894;SDS011;64573;50.328;15.014;2023-04-03T01:42:40;4.75;;;2.53;;
75894;SDS011;64573;50.328;15.014;2023-04-03T01:45:05;7.38;;;2.97;;
75894;SDS011;64573;50.328;15.014;2023-04-03T01:47:31;10.15;;;3.55;;
75894;SDS011;64573;50.328;15.014;2023-04-03T01:49:56;5.75;;;2.63;;
75894;SDS011;64573;50.328;15.014;2023-04-03T01:52:21;5.10;;;2.50;;
75894;SDS011;64573;50.328;15.014;2023-04-03T01:54:47;6.93;;;2.95;;
75894;SDS011;64573;50.328;15.014;2023-04-03T01:57:12;8.85;;;3.38;;
75894;SDS011;64573;50.328;15.014;2023-04-03T01:59:39;6.55;;;2.80;;
75894;SDS011;64573;50.328;15.014;2023-04-03T02:02:05;4.00;;;1.92;;
75894;SDS011;64573;50.328;15.014;2023-04-03T02:04:30;7.13;;;1.88;;
75894;SDS011;64573;50.328;15.014;2023-04-03T02:06:56;3.58;;;2.30;;
75894;SDS011;64573;50.328;15.014;2023-04-03T02:09:21;3.97;;;1.98;;
75894;SDS011;64573;50.328;15.014;2023-04-03T02:11:46;5.90;;;2.55;;
75894;SDS011;64573;50.328;15.014;2023-04-03T02:14:12;10.85;;;2.00;;
75894;SDS011;64573;50.328;15.014;2023-04-03T02:16:37;3.45;;;1.73;;
75894;SDS011;64573;50.328;15.014;2023-04-03T02:19:02;5.10;;;2.00;;
75894;SDS011;64573;50.328;15.014;2023-04-03T02:21:28;3.75;;;1.85;;
75894;SDS011;64573;50.328;15.014;2023-04-03T02:23:53;2.63;;;1.50;;
75894;SDS011;64573;50.328;15.014;2023-04-03T02:26:19;5.75;;;2.13;;
75894;SDS011;64573;50.328;15.014;2023-04-03T02:28:44;5.78;;;1.60;;
75894;SDS011;64573;50.328;15.014;2023-04-03T02:31:10;3.70;;;1.90;;
75894;SDS011;64573;50.328;15.014;2023-04-03T02:33:36;9.48;;;2.20;;
75894;SDS011;64573;50.328;15.014;2023-04-03T02:36:03;4.97;;;2.47;;
75894;SDS011;64573;50.328;15.014;2023-04-03T02:38:29;3.97;;;1.83;;
75894;SDS011;64573;50.328;15.014;2023-04-03T02:41:02;6.65;;;2.33;;
75894;SDS011;64573;50.328;15.014;2023-04-03T02:43:28;6.60;;;1.80;;
75894;SDS011;64573;50.328;15.014;2023-04-03T02:45:54;3.65;;;2.13;;
75894;SDS011;64573;50.328;15.014;2023-04-03T02:48:20;5.72;;;2.20;;
75894;SDS011;64573;50.328;15.014;2023-04-03T02:50:45;7.07;;;2.60;;
75894;SDS011;64573;50.328;15.014;2023-04-03T02:53:10;5.47;;;2.33;;
75894;SDS011;64573;50.328;15.014;2023-04-03T02:55:36;4.07;;;1.90;;
75894;SDS011;64573;50.328;15.014;2023-04-03T02:58:01;6.28;;;1.80;;
75894;SDS011;64573;50.328;15.014;2023-04-03T03:00:26;4.70;;;1.88;;
75894;SDS011;64573;50.328;15.014;2023-04-03T03:02:52;5.03;;;2.45;;
75894;SDS011;64573;50.328;15.014;2023-04-03T03:05:20;4.72;;;2.05;;
75894;SDS011;64573;50.328;15.014;2023-04-03T03:07:45;4.68;;;2.22;;
75894;SDS011;64573;50.328;15.014;2023-04-03T03:10:11;5.70;;;1.95;;
75894;SDS011;64573;50.328;15.014;2023-04-03T03:12:36;7.07;;;2.65;;
75894;SDS011;64573;50.328;15.014;2023-04-03T03:15:01;5.95;;;2.25;;
75894;SDS011;64573;50.328;15.014;2023-04-03T03:17:27;5.78;;;1.90;;
75894;SDS011;64573;50.328;15.014;2023-04-03T03:19:52;6.00;;;2.38;;
75894;SDS011;64573;50.328;15.014;2023-04-03T03:22:18;6.10;;;2.28;;
75894;SDS011;64573;50.328;15.014;2023-04-03T03:24:43;9.60;;;2.25;;
75894;SDS011;64573;50.328;15.014;2023-04-03T03:27:09;6.07;;;2.13;;
75894;SDS011;64573;50.328;15.014;2023-04-03T03:29:34;9.10;;;2.60;;
75894;SDS011;64573;50.328;15.014;2023-04-03T03:31:59;6.68;;;2.47;;
75894;SDS011;64573;50.328;15.014;2023-04-03T03:34:25;3.60;;;1.77;;
75894;SDS011;64573;50.328;15.014;2023-04-03T03:36:50;7.10;;;2.13;;
75894;SDS011;64573;50.328;15.014;2023-04-03T03:39:15;6.10;;;2.50;;
75894;SDS011;64573;50.328;15.014;2023-04-03T03:41:41;7.18;;;2.78;;
75894;SDS011;64573;50.328;15.014;2023-04-03T03:44:06;5.57;;;2.05;;
75894;SDS011;64573;50.328;15.014;2023-04-03T03:46:31;7.18;;;2.28;;
75894;SDS011;64573;50.328;15.014;2023-04-03T03:48:57;4.80;;;2.10;;
75894;SDS011;64573;50.328;15.014;2023-04-03T03:51:22;11.48;;;2.45;;
75894;SDS011;64573;50.328;15.014;2023-04-03T03:53:48;7.68;;;2.30;;
75894;SDS011;64573;50.328;15.014;2023-04-03T03:56:13;7.25;;;2.28;;
75894;SDS011;64573;50.328;15.014;2023-04-03T03:58:38;6.70;;;2.13;;
75894;SDS011;64573;50.328;15.014;2023-04-03T04:01:04;6.60;;;2.60;;
75894;SDS011;64573;50.328;15.014;2023-04-03T04:03:30;5.13;;;2.13;;
75894;SDS011;64573;50.328;15.014;2023-04-03T04:05:56;3.08;;;1.77;;
75894;SDS011;64573;50.328;15.014;2023-04-03T04:08:22;5.15;;;2.30;;
75894;SDS011;64573;50.328;15.014;2023-04-03T04:10:47;5.22;;;2.85;;
75894;SDS011;64573;50.328;15.014;2023-04-03T04:13:13;10.98;;;3.45;;
75894;SDS011;64573;50.328;15.014;2023-04-03T04:15:38;4.75;;;2.40;;
75894;SDS011;64573;50.328;15.014;2023-04-03T04:18:03;7.65;;;2.33;;
75894;SDS011;64573;50.328;15.014;2023-04-03T04:22:54;5.75;;;2.42;;
75894;SDS011;64573;50.328;15.014;2023-04-03T04:25:20;7.72;;;2.85;;
75894;SDS011;64573;50.328;15.014;2023-04-03T04:27:45;9.00;;;3.50;;
75894;SDS011;64573;50.328;15.014;2023-04-03T04:30:10;9.05;;;2.97;;
75894;SDS011;64573;50.328;15.014;2023-04-03T04:32:37;8.15;;;2.95;;
75894;SDS011;64573;50.328;15.014;2023-04-03T04:35:02;7.47;;;3.10;;
75894;SDS011;64573;50.328;15.014;2023-04-03T04:37:28;6.85;;;3.05;;
75894;SDS011;64573;50.328;15.014;2023-04-03T04:39:54;6.35;;;3.15;;
75894;SDS011;64573;50.328;15.014;2023-04-03T04:42:20;8.10;;;2.60;;
75894;SDS011;64573;50.328;15.014;2023-04-03T04:44:45;5.20;;;2.88;;
75894;SDS011;64573;50.328;15.014;2023-04-03T04:47:11;6.05;;;2.83;;
75894;SDS011;64573;50.328;15.014;2023-04-03T04:49:36;9.63;;;3.10;;
75894;SDS011;64573;50.328;15.014;2023-04-03T04:52:01;4.55;;;2.70;;
75894;SDS011;64573;50.328;15.014;2023-04-03T04:54:27;4.07;;;2.15;;
75894;SDS011;64573;50.328;15.014;2023-04-03T04:56:52;9.27;;;3.40;;
75894;SDS011;64573;50.328;15.014;2023-04-03T04:59:17;7.90;;;3.10;;
75894;SDS011;64573;50.328;15.014;2023-04-03T05:01:43;7.97;;;3.40;;
75894;SDS011;64573;50.328;15.014;2023-04-03T05:04:08;10.45;;;2.95;;
75894;SDS011;64573;50.328;15.014;2023-04-03T05:06:34;6.88;;;2.50;;
75894;SDS011;64573;50.328;15.014;2023-04-03T05:09:00;9.18;;;2.67;;
75894;SDS011;64573;50.328;15.014;2023-04-03T05:11:25;8.13;;;3.33;;
75894;SDS011;64573;50.328;15.014;2023-04-03T05:13:51;7.93;;;3.58;;
75894;SDS011;64573;50.328;15.014;2023-04-03T05:16:16;9.13;;;2.53;;
75894;SDS011;64573;50.328;15.014;2023-04-03T05:18:42;7.57;;;3.40;;
75894;SDS011;64573;50.328;15.014;2023-04-03T05:21:07;5.30;;;2.40;;
75894;SDS011;64573;50.328;15.014;2023-04-03T05:23:32;9.85;;;3.20;;
75894;SDS011;64573;50.328;15.014;2023-04-03T05:25:58;6.45;;;2.75;;
75894;SDS011;64573;50.328;15.014;2023-04-03T05:28:23;5.45;;;2.85;;
75894;SDS011;64573;50.328;15.014;2023-04-03T05:30:52;6.65;;;2.08;;
75894;SDS011;64573;50.328;15.014;2023-04-03T05:33:22;9.30;;;3.38;;
75894;SDS011;64573;50.328;15.014;2023-04-03T05:35:48;7.30;;;2.72;;
75894;SDS011;64573;50.328;15.014;2023-04-03T05:38:13;6.63;;;2.53;;
75894;SDS011;64573;50.328;15.014;2023-04-03T05:40:38;7.75;;;2.60;;
75894;SDS011;64573;50.328;15.014;2023-04-03T05:43:04;4.65;;;1.92;;
75894;SDS011;64573;50.328;15.014;2023-04-03T05:45:30;8.07;;;2.88;;
75894;SDS011;64573;50.328;15.014;2023-04-03T05:47:55;8.88;;;3.63;;
75894;SDS011;64573;50.328;15.014;2023-04-03T05:50:20;6.55;;;2.85;;
75894;SDS011;64573;50.328;15.014;2023-04-03T05:52:46;7.72;;;3.65;;
75894;SDS011;64573;50.328;15.014;2023-04-03T05:55:13;9.80;;;3.63;;
75894;SDS011;64573;50.328;15.014;2023-04-03T05:57:39;7.55;;;2.60;;
75894;SDS011;64573;50.328;15.014;2023-04-03T06:00:07;6.50;;;2.33;;
75894;SDS011;64573;50.328;15.014;2023-04-03T06:02:34;6.55;;;2.80;;
75894;SDS011;64573;50.328;15.014;2023-04-03T06:05:00;9.93;;;3.08;;
75894;SDS011;64573;50.328;15.014;2023-04-03T06:07:26;7.35;;;2.47;;
75894;SDS011;64573;50.328;15.014;2023-04-03T06:09:53;6.97;;;3.15;;
75894;SDS011;64573;50.328;15.014;2023-04-03T06:12:20;10.57;;;4.50;;
75894;SDS011;64573;50.328;15.014;2023-04-03T06:14:46;35.90;;;13.05;;
75894;SDS011;64573;50.328;15.014;2023-04-03T06:17:12;38.10;;;16.17;;
75894;SDS011;64573;50.328;15.014;2023-04-03T06:19:38;53.92;;;24.17;;
75894;SDS011;64573;50.328;15.014;2023-04-03T06:22:04;8.07;;;3.28;;
75894;SDS011;64573;50.328;15.014;2023-04-03T06:24:29;6.55;;;2.70;;
75894;SDS011;64573;50.328;15.014;2023-04-03T06:26:55;6.60;;;3.28;;
75894;SDS011;64573;50.328;15.014;2023-04-03T06:29:21;8.40;;;4.03;;
75894;SDS011;64573;50.328;15.014;2023-04-03T06:31:47;9.18;;;4.88;;
75894;SDS011;64573;50.328;15.014;2023-04-03T06:34:13;6.90;;;2.55;;
75894;SDS011;64573;50.328;15.014;2023-04-03T06:36:40;8.70;;;3.40;;
75894;SDS011;64573;50.328;15.014;2023-04-03T06:39:06;10.20;;;3.30;;
75894;SDS011;64573;50.328;15.014;2023-04-03T06:41:32;8.38;;;3.10;;
75894;SDS011;64573;50.328;15.014;2023-04-03T06:43:58;6.90;;;2.78;;
75894;SDS011;64573;50.328;15.014;2023-04-03T06:46:24;12.75;;;7.00;;
75894;SDS011;64573;50.328;15.014;2023-04-03T06:48:51;3.25;;;2.40;;
75894;SDS011;64573;50.328;15.014;2023-04-03T06:51:17;7.32;;;4.10;;
75894;SDS011;64573;50.328;15.014;2023-04-03T06:53:48;6.35;;;2.42;;
75894;SDS011;64573;50.328;15.014;2023-04-03T06:56:16;3.78;;;1.92;;
75894;SDS011;64573;50.328;15.014;2023-04-03T06:58:42;9.13;;;3.17;;
75894;SDS011;64573;50.328;15.014;2023-04-03T07:01:12;4.97;;;2.35;;
75894;SDS011;64573;50.328;15.014;2023-04-03T07:03:39;5.88;;;3.22;;
75894;SDS011;64573;50.328;15.014;2023-04-03T07:06:05;6.90;;;3.92;;
75894;SDS011;64573;50.328;15.014;2023-04-03T07:08:32;3.85;;;2.30;;
75894;SDS011;64573;50.328;15.014;2023-04-03T07:10:58;6.07;;;2.72;;
75894;SDS011;64573;50.328;15.014;2023-04-03T07:13:23;4.53;;;2.40;;
75894;SDS011;64573;50.328;15.014;2023-04-03T07:15:49;5.03;;;2.13;;
75894;SDS011;64573;50.328;15.014;2023-04-03T07:18:15;3.65;;;2.53;;
75894;SDS011;64573;50.328;15.014;2023-04-03T07:20:42;4.88;;;2.50;;
75894;SDS011;64573;50.328;15.014;2023-04-03T07:23:08;5.10;;;2.60;;
75894;SDS011;64573;50.328;15.014;2023-04-03T07:25:34;3.70;;;2.00;;
75894;SDS011;64573;50.328;15.014;2023-04-03T07:27:59;4.35;;;2.35;;
75894;SDS011;64573;50.328;15.014;2023-04-03T07:30:25;6.93;;;2.25;;
75894;SDS011;64573;50.328;15.014;2023-04-03T07:32:51;3.42;;;1.88;;
75894;SDS011;64573;50.328;15.014;2023-04-03T07:35:16;3.92;;;2.28;;
75894;SDS011;64573;50.328;15.014;2023-04-03T07:37:42;4.60;;;2.42;;
75894;SDS011;64573;50.328;15.014;2023-04-03T07:40:08;4.22;;;2.30;;
75894;SDS011;64573;50.328;15.014;2023-04-03T07:42:34;6.03;;;2.33;;
75894;SDS011;64573;50.328;15.014;2023-04-03T07:45:00;4.25;;;2.33;;
75894;SDS011;64573;50.328;15.014;2023-04-03T07:47:26;2.92;;;1.63;;
75894;SDS011;64573;50.328;15.014;2023-04-03T07:49:52;4.47;;;1.95;;
75894;SDS011;64573;50.328;15.014;2023-04-03T07:52:17;5.10;;;1.60;;
75894;SDS011;64573;50.328;15.014;2023-04-03T07:54:43;19.73;;;8.60;;
75894;SDS011;64573;50.328;15.014;2023-04-03T07:57:08;2.28;;;1.20;;
75894;SDS011;64573;50.328;15.014;2023-04-03T07:59:33;5.47;;;2.42;;
75894;SDS011;64573;50.328;15.014;2023-04-03T08:01:59;3.47;;;2.28;;
75894;SDS011;64573;50.328;15.014;2023-04-03T08:04:24;2.60;;;1.60;;
75894;SDS011;64573;50.328;15.014;2023-04-03T08:06:51;5.20;;;2.08;;
75894;SDS011;64573;50.328;15.014;2023-04-03T08:09:17;3.08;;;1.50;;
75894;SDS011;64573;50.328;15.014;2023-04-03T08:11:43;8.35;;;2.38;;
75894;SDS011;64573;50.328;15.014;2023-04-03T08:14:09;8.23;;;1.98;;
75894;SDS011;64573;50.328;15.014;2023-04-03T08:16:40;3.67;;;1.80;;
75894;SDS011;64573;50.328;15.014;2023-04-03T08:19:06;5.72;;;2.13;;
75894;SDS011;64573;50.328;15.014;2023-04-03T08:21:32;4.75;;;2.03;;
75894;SDS011;64573;50.328;15.014;2023-04-03T08:23:58;7.40;;;1.70;;
75894;SDS011;64573;50.328;15.014;2023-04-03T08:26:23;3.10;;;1.70;;
75894;SDS011;64573;50.328;15.014;2023-04-03T08:28:49;3.83;;;2.13;;
75894;SDS011;64573;50.328;15.014;2023-04-03T08:31:15;3.65;;;1.80;;
75894;SDS011;64573;50.328;15.014;2023-04-03T08:33:43;6.70;;;1.60;;
75894;SDS011;64573;50.328;15.014;2023-04-03T08:36:20;3.42;;;1.50;;
75894;SDS011;64573;50.328;15.014;2023-04-03T08:38:53;3.47;;;1.95;;
75894;SDS011;64573;50.328;15.014;2023-04-03T08:41:31;4.68;;;1.63;;
75894;SDS011;64573;50.328;15.014;2023-04-03T08:50:20;3.03;;;1.40;;
75894;SDS011;64573;50.328;15.014;2023-04-03T08:52:50;2.40;;;1.55;;
75894;SDS011;64573;50.328;15.014;2023-04-03T08:55:23;2.80;;;1.42;;
75894;SDS011;64573;50.328;15.014;2023-04-03T08:58:20;4.88;;;1.58;;
75894;SDS011;64573;50.328;15.014;2023-04-03T09:00:48;2.28;;;1.20;;
75894;SDS011;64573;50.328;15.014;2023-04-03T09:03:18;2.40;;;1.48;;
75894;SDS011;64573;50.328;15.014;2023-04-03T09:05:52;2.42;;;1.08;;
75894;SDS011;64573;50.328;15.014;2023-04-03T09:11:05;1.83;;;1.13;;
75894;SDS011;64573;50.328;15.014;2023-04-03T09:13:44;3.40;;;1.33;;
75894;SDS011;64573;50.328;15.014;2023-04-03T09:16:28;3.30;;;1.40;;
75894;SDS011;64573;50.328;15.014;2023-04-03T09:24:54;3.75;;;1.55;;
75894;SDS011;64573;50.328;15.014;2023-04-03T09:27:23;1.98;;;1.00;;
75894;SDS011;64573;50.328;15.014;2023-04-03T09:29:49;1.55;;;1.00;;
75894;SDS011;64573;50.328;15.014;2023-04-03T09:32:22;2.80;;;1.20;;
75894;SDS011;64573;50.328;15.014;2023-04-03T09:35:01;2.80;;;1.40;;
75894;SDS011;64573;50.328;15.014;2023-04-03T09:37:39;4.03;;;1.20;;
75894;SDS011;64573;50.328;15.014;2023-04-03T09:40:29;2.08;;;1.17;;
75894;SDS011;64573;50.328;15.014;2023-04-03T09:42:57;2.65;;;1.42;;
75894;SDS011;64573;50.328;15.014;2023-04-03T09:48:03;4.10;;;1.50;;
75894;SDS011;64573;50.328;15.014;2023-04-03T09:50:32;1.80;;;1.08;;
75894;SDS011;64573;50.328;15.014;2023-04-03T09:52:59;2.95;;;1.30;;
75894;SDS011;64573;50.328;15.014;2023-04-03T09:55:30;2.25;;;1.10;;
75894;SDS011;64573;50.328;15.014;2023-04-03T09:58:02;1.33;;;0.95;;
75894;SDS011;64573;50.328;15.014;2023-04-03T10:00:33;1.83;;;1.20;;
75894;SDS011;64573;50.328;15.014;2023-04-03T10:03:05;2.40;;;1.40;;
75894;SDS011;64573;50.328;15.014;2023-04-03T10:05:48;2.58;;;1.40;;
75894;SDS011;64573;50.328;15.014;2023-04-03T10:10:44;2.58;;;1.27;;
75894;SDS011;64573;50.328;15.014;2023-04-03T10:13:15;2.53;;;1.20;;
75894;SDS011;64573;50.328;15.014;2023-04-03T10:15:45;2.85;;;1.25;;
75894;SDS011;64573;50.328;15.014;2023-04-03T10:18:20;3.83;;;1.50;;
75894;SDS011;64573;50.328;15.014;2023-04-03T10:29:20;1.63;;;1.33;;
75894;SDS011;64573;50.328;15.014;2023-04-03T10:32:42;3.97;;;1.30;;
75894;SDS011;64573;50.328;15.014;2023-04-03T10:43:06;3.75;;;1.27;;
75894;SDS011;64573;50.328;15.014;2023-04-03T10:45:47;3.15;;;1.30;;
75894;SDS011;64573;50.328;15.014;2023-04-03T10:54:24;2.80;;;1.27;;
75894;SDS011;64573;50.328;15.014;2023-04-03T10:56:54;2.40;;;1.30;;
75894;SDS011;64573;50.328;15.014;2023-04-03T10:59:30;2.67;;;1.48;;
75894;SDS011;64573;50.328;15.014;2023-04-03T11:02:01;2.03;;;1.40;;
75894;SDS011;64573;50.328;15.014;2023-04-03T11:04:33;5.78;;;1.50;;
75894;SDS011;64573;50.328;15.014;2023-04-03T11:07:01;4.18;;;1.40;;
75894;SDS011;64573;50.328;15.014;2023-04-03T11:09:49;2.33;;;1.10;;
75894;SDS011;64573;50.328;15.014;2023-04-03T11:15:11;3.78;;;1.30;;
75894;SDS011;64573;50.328;15.014;2023-04-03T11:17:41;2.63;;;1.23;;
75894;SDS011;64573;50.328;15.014;2023-04-03T11:20:16;2.40;;;1.00;;
75894;SDS011;64573;50.328;15.014;2023-04-03T11:22:47;2.20;;;1.23;;
75894;SDS011;64573;50.328;15.014;2023-04-03T11:25:19;3.00;;;1.13;;
75894;SDS011;64573;50.328;15.014;2023-04-03T11:27:53;2.03;;;1.30;;
75894;SDS011;64573;50.328;15.014;2023-04-03T11:30:28;4.72;;;1.30;;
75894;SDS011;64573;50.328;15.014;2023-04-03T11:35:56;2.60;;;1.40;;
75894;SDS011;64573;50.328;15.014;2023-04-03T11:38:27;3.63;;;1.20;;
75894;SDS011;64573;50.328;15.014;2023-04-03T11:40:56;3.20;;;1.30;;
75894;SDS011;64573;50.328;15.014;2023-04-03T11:43:28;4.25;;;1.20;;
75894;SDS011;64573;50.328;15.014;2023-04-03T11:45:59;2.47;;;1.17;;
75894;SDS011;64573;50.328;15.014;2023-04-03T11:50:58;2.78;;;1.25;;
75894;SDS011;64573;50.328;15.014;2023-04-03T11:53:33;5.45;;;1.35;;
75894;SDS011;64573;50.328;15.014;2023-04-03T11:56:03;3.70;;;1.35;;
75894;SDS011;64573;50.328;15.014;2023-04-03T12:01:43;1.88;;;1.20;;
75894;SDS011;64573;50.328;15.014;2023-04-03T12:04:10;2.80;;;1.43;;
75894;SDS011;64573;50.328;15.014;2023-04-03T12:09:10;2.58;;;1.13;;
75894;SDS011;64573;50.328;15.014;2023-04-03T12:11:48;3.88;;;1.50;;
75894;SDS011;64573;50.328;15.014;2023-04-03T12:14:14;2.95;;;1.20;;
75894;SDS011;64573;50.328;15.014;2023-04-03T12:26:48;3.50;;;1.13;;
75894;SDS011;64573;50.328;15.014;2023-04-03T12:29:25;2.78;;;1.10;;
75894;SDS011;64573;50.328;15.014;2023-04-03T12:43:30;4.70;;;1.42;;
75894;SDS011;64573;50.328;15.014;2023-04-03T12:48:37;3.67;;;1.15;;
75894;SDS011;64573;50.328;15.014;2023-04-03T12:51:14;2.35;;;1.13;;
75894;SDS011;64573;50.328;15.014;2023-04-03T12:53:43;3.72;;;1.60;;
75894;SDS011;64573;50.328;15.014;2023-04-03T12:56:21;5.63;;;1.25;;
75894;SDS011;64573;50.328;15.014;2023-04-03T12:58:55;2.83;;;1.33;;
75894;SDS011;64573;50.328;15.014;2023-04-03T13:01:24;2.05;;;1.02;;
75894;SDS011;64573;50.328;15.014;2023-04-03T13:03:52;2.95;;;1.35;;
75894;SDS011;64573;50.328;15.014;2023-04-03T13:08:56;4.00;;;1.25;;
75894;SDS011;64573;50.328;15.014;2023-04-03T13:11:27;3.20;;;1.65;;
75894;SDS011;64573;50.328;15.014;2023-04-03T13:14:05;7.97;;;1.90;;
75894;SDS011;64573;50.328;15.014;2023-04-03T13:16:40;1.75;;;1.20;;
75894;SDS011;64573;50.328;15.014;2023-04-03T13:19:06;3.65;;;1.77;;
75894;SDS011;64573;50.328;15.014;2023-04-03T13:21:41;4.38;;;1.58;;
75894;SDS011;64573;50.328;15.014;2023-04-03T13:24:08;3.03;;;1.33;;
75894;SDS011;64573;50.328;15.014;2023-04-03T13:26:33;4.75;;;1.50;;
75894;SDS011;64573;50.328;15.014;2023-04-03T13:29:01;3.15;;;1.27;;
75894;SDS011;64573;50.328;15.014;2023-04-03T13:31:32;1.55;;;1.10;;
75894;SDS011;64573;50.328;15.014;2023-04-03T13:34:04;2.40;;;1.25;;
75894;SDS011;64573;50.328;15.014;2023-04-03T13:36:36;2.75;;;1.60;;
75894;SDS011;64573;50.328;15.014;2023-04-03T13:41:42;2.40;;;1.00;;
75894;SDS011;64573;50.328;15.014;2023-04-03T13:52:01;1.92;;;1.10;;
75894;SDS011;64573;50.328;15.014;2023-04-03T13:54:45;6.22;;;1.88;;
75894;SDS011;64573;50.328;15.014;2023-04-03T13:57:13;4.03;;;1.73;;
75894;SDS011;64573;50.328;15.014;2023-04-03T13:59:40;2.92;;;1.55;;
75894;SDS011;64573;50.328;15.014;2023-04-03T14:02:12;4.22;;;1.40;;
75894;SDS011;64573;50.328;15.014;2023-04-03T14:07:08;4.45;;;1.55;;
75894;SDS011;64573;50.328;15.014;2023-04-03T14:09:34;3.53;;;1.70;;
75894;SDS011;64573;50.328;15.014;2023-04-03T14:12:02;5.22;;;2.13;;
75894;SDS011;64573;50.328;15.014;2023-04-03T14:14:34;2.15;;;1.20;;
75894;SDS011;64573;50.328;15.014;2023-04-03T14:17:02;3.50;;;1.50;;
75894;SDS011;64573;50.328;15.014;2023-04-03T14:19:37;2.30;;;1.40;;
75894;SDS011;64573;50.328;15.014;2023-04-03T14:22:10;3.70;;;1.60;;
75894;SDS011;64573;50.328;15.014;2023-04-03T14:24:39;5.53;;;1.88;;
75894;SDS011;64573;50.328;15.014;2023-04-03T14:27:09;3.38;;;1.70;;
75894;SDS011;64573;50.328;15.014;2023-04-03T14:29:46;2.58;;;1.50;;
75894;SDS011;64573;50.328;15.014;2023-04-03T14:32:14;3.50;;;1.83;;
75894;SDS011;64573;50.328;15.014;2023-04-03T14:34:41;4.10;;;1.90;;
75894;SDS011;64573;50.328;15.014;2023-04-03T14:37:15;4.30;;;1.75;;
75894;SDS011;64573;50.328;15.014;2023-04-03T14:39:43;2.67;;;1.58;;
75894;SDS011;64573;50.328;15.014;2023-04-03T14:42:18;4.28;;;1.55;;
75894;SDS011;64573;50.328;15.014;2023-04-03T14:44:46;4.40;;;1.85;;
75894;SDS011;64573;50.328;15.014;2023-04-03T14:47:13;8.85;;;2.88;;
75894;SDS011;64573;50.328;15.014;2023-04-03T14:49:41;15.40;;;2.58;;
75894;SDS011;64573;50.328;15.014;2023-04-03T14:52:12;18.27;;;3.40;;
75894;SDS011;64573;50.328;15.014;2023-04-03T14:54:46;3.25;;;1.67;;
75894;SDS011;64573;50.328;15.014;2023-04-03T14:57:13;7.88;;;2.17;;
75894;SDS011;64573;50.328;15.014;2023-04-03T14:59:40;2.50;;;1.45;;
75894;SDS011;64573;50.328;15.014;2023-04-03T15:04:55;3.40;;;1.77;;
75894;SDS011;64573;50.328;15.014;2023-04-03T15:07:22;5.03;;;1.45;;
75894;SDS011;64573;50.328;15.014;2023-04-03T15:09:50;2.75;;;1.08;;
75894;SDS011;64573;50.328;15.014;2023-04-03T15:12:16;2.50;;;1.27;;
75894;SDS011;64573;50.328;15.014;2023-04-03T15:14:42;3.63;;;1.33;;
75894;SDS011;64573;50.328;15.014;2023-04-03T15:17:13;3.45;;;1.48;;
75894;SDS011;64573;50.328;15.014;2023-04-03T15:19:41;3.70;;;1.60;;
75894;SDS011;64573;50.328;15.014;2023-04-03T15:22:08;2.97;;;1.42;;
75894;SDS011;64573;50.328;15.014;2023-04-03T15:24:39;2.47;;;1.48;;
75894;SDS011;64573;50.328;15.014;2023-04-03T15:27:05;2.20;;;1.20;;
75894;SDS011;64573;50.328;15.014;2023-04-03T15:29:30;2.53;;;1.20;;
75894;SDS011;64573;50.328;15.014;2023-04-03T15:31:56;2.50;;;1.20;;
75894;SDS011;64573;50.328;15.014;2023-04-03T15:34:21;3.10;;;1.50;;
75894;SDS011;64573;50.328;15.014;2023-04-03T15:36:47;3.10;;;1.65;;
75894;SDS011;64573;50.328;15.014;2023-04-03T15:39:12;4.28;;;1.73;;
75894;SDS011;64573;50.328;15.014;2023-04-03T15:41:38;3.60;;;1.70;;
75894;SDS011;64573;50.328;15.014;2023-04-03T15:44:05;2.95;;;1.75;;
75894;SDS011;64573;50.328;15.014;2023-04-03T16:09:35;3.83;;;2.00;;
75894;SDS011;64573;50.328;15.014;2023-04-03T16:12:01;3.33;;;1.55;;
75894;SDS011;64573;50.328;15.014;2023-04-03T16:24:47;4.70;;;1.50;;
75894;SDS011;64573;50.328;15.014;2023-04-03T16:35:01;5.88;;;1.90;;
75894;SDS011;64573;50.328;15.014;2023-04-03T16:40:02;4.47;;;1.83;;
75894;SDS011;64573;50.328;15.014;2023-04-03T16:50:11;4.28;;;1.80;;
75894;SDS011;64573;50.328;15.014;2023-04-03T17:00:14;6.68;;;2.17;;
75894;SDS011;64573;50.328;15.014;2023-04-03T17:02:40;7.60;;;2.10;;
75894;SDS011;64573;50.328;15.014;2023-04-03T17:20:25;9.93;;;2.60;;
75894;SDS011;64573;50.328;15.014;2023-04-03T17:28:01;3.80;;;2.08;;
75894;SDS011;64573;50.328;15.014;2023-04-03T17:35:37;7.88;;;2.85;;
75894;SDS011;64573;50.328;15.014;2023-04-03T17:38:03;6.68;;;2.78;;
75894;SDS011;64573;50.328;15.014;2023-04-03T17:40:28;4.85;;;2.30;;
75894;SDS011;64573;50.328;15.014;2023-04-03T17:47:54;3.25;;;2.13;;
75894;SDS011;64573;50.328;15.014;2023-04-03T17:55:30;5.25;;;1.90;;
75894;SDS011;64573;50.328;15.014;2023-04-03T18:05:41;7.97;;;3.13;;